SWA4087 KBNA-KEWR
Flight info
| Callsign | SWA4087 |
|---|---|
| Flight time | 1h 37m |
| Altitude | 37000 |
| Route | CHADM4 MUNNY DCT TONIO Q34 GVE PHLBO4 |
| Aircraft | B738/M-SDE2E3FGHIRWXY/LB1 |
Departure
| Time | 2026-05-04 22:38 |
|---|---|
| Airport | Nashville International Airport (KBNA) |
Arrival
| Time | 2026-05-05 00:16 |
|---|---|
| Airport | Newark Liberty International Airport (KEWR) |
| Time | Latitude | Longitude | Altitude | Speed | Heading |
|---|---|---|---|---|---|
| 2026-05-04 22:14 | 36.12870 | -86.66938 | 569 ft | 0 kts | 248° |
| 2026-05-04 22:25 | 36.12877 | -86.66918 | 573 ft | 3 kts | 248° |
| 2026-05-04 22:25 | 36.12878 | -86.66914 | 570 ft | 0 kts | 252° |
| 2026-05-04 22:26 | 36.12881 | -86.66906 | 572 ft | 3 kts | 226° |
| 2026-05-04 22:26 | 36.12897 | -86.66897 | 574 ft | 3 kts | 162° |
| 2026-05-04 22:26 | 36.12899 | -86.66897 | 573 ft | 0 kts | 156° |
| 2026-05-04 22:28 | 36.12898 | -86.66897 | 573 ft | 3 kts | 156° |
| 2026-05-04 22:28 | 36.12895 | -86.66895 | 570 ft | 0 kts | 149° |
| 2026-05-04 22:29 | 36.12894 | -86.66894 | 570 ft | 0 kts | 148° |
| 2026-05-04 22:29 | 36.12893 | -86.66893 | 570 ft | 1 kts | 145° |
| 2026-05-04 22:29 | 36.12887 | -86.66880 | 570 ft | 3 kts | 118° |
| 2026-05-04 22:30 | 36.12865 | -86.66839 | 572 ft | 11 kts | 127° |
| 2026-05-04 22:30 | 36.12806 | -86.66769 | 570 ft | 13 kts | 158° |
| 2026-05-04 22:30 | 36.12730 | -86.66807 | 570 ft | 12 kts | 220° |
| 2026-05-04 22:30 | 36.12665 | -86.66877 | 566 ft | 13 kts | 221° |
| 2026-05-04 22:31 | 36.12655 | -86.66915 | 569 ft | 3 kts | 308° |
| 2026-05-04 22:31 | 36.12695 | -86.66967 | 573 ft | 13 kts | 313° |
| 2026-05-04 22:31 | 36.12757 | -86.67054 | 573 ft | 13 kts | 310° |
| 2026-05-04 22:31 | 36.12814 | -86.67140 | 574 ft | 12 kts | 308° |
| 2026-05-04 22:32 | 36.12861 | -86.67236 | 567 ft | 14 kts | 273° |
| 2026-05-04 22:32 | 36.12813 | -86.67320 | 570 ft | 12 kts | 224° |
| 2026-05-04 22:32 | 36.12759 | -86.67382 | 570 ft | 10 kts | 222° |
| 2026-05-04 22:32 | 36.12695 | -86.67396 | 576 ft | 10 kts | 151° |
| 2026-05-04 22:33 | 36.12644 | -86.67336 | 574 ft | 11 kts | 134° |
| 2026-05-04 22:33 | 36.12578 | -86.67248 | 571 ft | 16 kts | 134° |
| 2026-05-04 22:33 | 36.12495 | -86.67141 | 570 ft | 18 kts | 134° |
| 2026-05-04 22:33 | 36.12409 | -86.67028 | 563 ft | 19 kts | 133° |
| 2026-05-04 22:34 | 36.12314 | -86.66900 | 559 ft | 19 kts | 125° |
| 2026-05-04 22:34 | 36.12262 | -86.66749 | 566 ft | 19 kts | 107° |
| 2026-05-04 22:34 | 36.12223 | -86.66600 | 569 ft | 18 kts | 108° |
| 2026-05-04 22:34 | 36.12263 | -86.66509 | 575 ft | 13 kts | 25° |
| 2026-05-04 22:35 | 36.12356 | -86.66475 | 575 ft | 15 kts | 18° |
| 2026-05-04 22:35 | 36.12471 | -86.66429 | 573 ft | 19 kts | 18° |
| 2026-05-04 22:35 | 36.12602 | -86.66376 | 577 ft | 20 kts | 18° |
| 2026-05-04 22:35 | 36.12688 | -86.66341 | 573 ft | 20 kts | 18° |
| 2026-05-04 22:36 | 36.12884 | -86.66263 | 568 ft | 23 kts | 18° |
| 2026-05-04 22:36 | 36.13015 | -86.66210 | 569 ft | 21 kts | 18° |
| 2026-05-04 22:36 | 36.13166 | -86.66150 | 565 ft | 24 kts | 18° |
| 2026-05-04 22:36 | 36.13258 | -86.66113 | 565 ft | 18 kts | 18° |
| 2026-05-04 22:37 | 36.13346 | -86.66076 | 557 ft | 7 kts | 25° |
| 2026-05-04 22:37 | 36.13372 | -86.66016 | 563 ft | 9 kts | 94° |
| 2026-05-04 22:37 | 36.13339 | -86.65953 | 557 ft | 9 kts | 155° |
| 2026-05-04 22:37 | 36.13274 | -86.65967 | 565 ft | 16 kts | 198° |
| 2026-05-04 22:38 | 36.12893 | -86.66118 | 569 ft | 97 kts | 198° |
| 2026-05-04 22:38 | 36.12057 | -86.66454 | 724 ft | 149 kts | 199° |
| 2026-05-04 22:38 | 36.10983 | -86.66848 | 1375 ft | 170 kts | 199° |
| 2026-05-04 22:38 | 36.09755 | -86.67295 | 1967 ft | 200 kts | 195° |
| 2026-05-04 22:39 | 36.08255 | -86.67341 | 2402 ft | 230 kts | 176° |
| 2026-05-04 22:39 | 36.06655 | -86.66911 | 2959 ft | 244 kts | 168° |
| 2026-05-04 22:39 | 36.04968 | -86.66316 | 3535 ft | 256 kts | 168° |
| 2026-05-04 22:39 | 36.03230 | -86.65702 | 3920 ft | 263 kts | 167° |
| 2026-05-04 22:40 | 36.01496 | -86.65099 | 4000 ft | 260 kts | 167° |
| 2026-05-04 22:40 | 35.99794 | -86.64353 | 4001 ft | 262 kts | 153° |
| 2026-05-04 22:40 | 35.98476 | -86.62761 | 4204 ft | 273 kts | 123° |
| 2026-05-04 22:40 | 35.97807 | -86.60527 | 4986 ft | 282 kts | 103° |
| 2026-05-04 22:41 | 35.97653 | -86.58128 | 5851 ft | 286 kts | 94° |
| 2026-05-04 22:41 | 35.97635 | -86.55672 | 6592 ft | 286 kts | 94° |
| 2026-05-04 22:41 | 35.97613 | -86.53213 | 6925 ft | 288 kts | 94° |
| 2026-05-04 22:41 | 35.97571 | -86.50702 | 6997 ft | 293 kts | 95° |
| 2026-05-04 22:42 | 35.97546 | -86.48185 | 7001 ft | 293 kts | 88° |
| 2026-05-04 22:42 | 35.98158 | -86.45802 | 7047 ft | 300 kts | 61° |
| 2026-05-04 22:42 | 35.99324 | -86.43636 | 7587 ft | 307 kts | 56° |
| 2026-05-04 22:42 | 36.00587 | -86.41459 | 8427 ft | 309 kts | 54° |
| 2026-05-04 22:43 | 36.01841 | -86.39318 | 9155 ft | 315 kts | 54° |
| 2026-05-04 22:43 | 36.03136 | -86.37099 | 9875 ft | 321 kts | 54° |
| 2026-05-04 22:43 | 36.04454 | -86.34827 | 10447 ft | 332 kts | 54° |
| 2026-05-04 22:43 | 36.05846 | -86.32415 | 10626 ft | 356 kts | 54° |
| 2026-05-04 22:44 | 36.07311 | -86.29862 | 10815 ft | 377 kts | 54° |
| 2026-05-04 22:44 | 36.08850 | -86.27172 | 11308 ft | 387 kts | 54° |
| 2026-05-04 22:44 | 36.10411 | -86.24436 | 12001 ft | 389 kts | 54° |
| 2026-05-04 22:44 | 36.11974 | -86.21695 | 12781 ft | 390 kts | 54° |
| 2026-05-04 22:45 | 36.13529 | -86.18964 | 13500 ft | 394 kts | 54° |
| 2026-05-04 22:45 | 36.16711 | -86.13371 | 14764 ft | 401 kts | 53° |
| 2026-05-04 22:45 | 36.18326 | -86.10531 | 15369 ft | 405 kts | 53° |
| 2026-05-04 22:46 | 36.19899 | -86.07596 | 15924 ft | 411 kts | 61° |
| 2026-05-04 22:46 | 36.20813 | -86.04229 | 16548 ft | 414 kts | 78° |
| 2026-05-04 22:46 | 36.21408 | -86.00771 | 17177 ft | 418 kts | 78° |
| 2026-05-04 22:46 | 36.22030 | -85.97220 | 17673 ft | 424 kts | 77° |
| 2026-05-04 22:47 | 36.22681 | -85.93626 | 18201 ft | 429 kts | 77° |
| 2026-05-04 22:47 | 36.23355 | -85.90004 | 18721 ft | 432 kts | 76° |
| 2026-05-04 22:47 | 36.24040 | -85.86370 | 19295 ft | 434 kts | 76° |
| 2026-05-04 22:47 | 36.24733 | -85.82704 | 19824 ft | 437 kts | 76° |
| 2026-05-04 22:48 | 36.25418 | -85.79071 | 20298 ft | 440 kts | 76° |
| 2026-05-04 22:48 | 36.26244 | -85.75391 | 20804 ft | 443 kts | 70° |
| 2026-05-04 22:48 | 36.27265 | -85.71782 | 21322 ft | 444 kts | 68° |
| 2026-05-04 22:48 | 36.28357 | -85.68164 | 21801 ft | 448 kts | 67° |
| 2026-05-04 22:49 | 36.29450 | -85.64533 | 22295 ft | 451 kts | 68° |
| 2026-05-04 22:49 | 36.30513 | -85.60913 | 22750 ft | 454 kts | 68° |
| 2026-05-04 22:49 | 36.31574 | -85.57214 | 23242 ft | 456 kts | 68° |
| 2026-05-04 22:49 | 36.32628 | -85.53483 | 23692 ft | 458 kts | 69° |
| 2026-05-04 22:50 | 36.33682 | -85.49730 | 24059 ft | 461 kts | 69° |
| 2026-05-04 22:50 | 36.34742 | -85.45956 | 24428 ft | 464 kts | 69° |
| 2026-05-04 22:50 | 36.35808 | -85.42218 | 24803 ft | 466 kts | 68° |
| 2026-05-04 22:50 | 36.36962 | -85.38443 | 25138 ft | 469 kts | 66° |
| 2026-05-04 22:51 | 36.38166 | -85.34641 | 25487 ft | 471 kts | 66° |
| 2026-05-04 22:51 | 36.39378 | -85.30837 | 25854 ft | 473 kts | 66° |
| 2026-05-04 22:51 | 36.40573 | -85.27063 | 26213 ft | 476 kts | 66° |
| 2026-05-04 22:51 | 36.41779 | -85.23222 | 26561 ft | 479 kts | 66° |
| 2026-05-04 22:52 | 36.42983 | -85.19354 | 26873 ft | 481 kts | 66° |
| 2026-05-04 22:52 | 36.44189 | -85.15458 | 27204 ft | 484 kts | 66° |
| 2026-05-04 22:52 | 36.45396 | -85.11550 | 27533 ft | 486 kts | 67° |
| 2026-05-04 22:52 | 36.46612 | -85.07606 | 27853 ft | 488 kts | 67° |
| 2026-05-04 22:53 | 36.47812 | -85.03712 | 28161 ft | 490 kts | 67° |
| 2026-05-04 22:53 | 36.49041 | -84.99727 | 28420 ft | 494 kts | 67° |
| 2026-05-04 22:53 | 36.50275 | -84.95718 | 28709 ft | 496 kts | 66° |
| 2026-05-04 22:53 | 36.51613 | -84.91769 | 29009 ft | 497 kts | 63° |
| 2026-05-04 22:54 | 36.53113 | -84.87923 | 29302 ft | 498 kts | 60° |
| 2026-05-04 22:54 | 36.54712 | -84.84058 | 29570 ft | 500 kts | 60° |
| 2026-05-04 22:54 | 36.56324 | -84.80219 | 29849 ft | 501 kts | 60° |
| 2026-05-04 22:54 | 36.57914 | -84.76404 | 30172 ft | 501 kts | 60° |
| 2026-05-04 22:55 | 36.59499 | -84.72544 | 30540 ft | 499 kts | 60° |
| 2026-05-04 22:55 | 36.61058 | -84.68692 | 30913 ft | 497 kts | 61° |
| 2026-05-04 22:55 | 36.62603 | -84.64834 | 31237 ft | 497 kts | 61° |
| 2026-05-04 22:55 | 36.64142 | -84.60967 | 31498 ft | 498 kts | 61° |
| 2026-05-04 22:56 | 36.65677 | -84.57098 | 31786 ft | 498 kts | 61° |
| 2026-05-04 22:56 | 36.67208 | -84.53232 | 32135 ft | 496 kts | 61° |
| 2026-05-04 22:56 | 36.68736 | -84.49370 | 32458 ft | 495 kts | 61° |
| 2026-05-04 22:56 | 36.70245 | -84.45553 | 32737 ft | 495 kts | 61° |
| 2026-05-04 22:57 | 36.71770 | -84.41694 | 33005 ft | 495 kts | 61° |
| 2026-05-04 22:57 | 36.73295 | -84.37835 | 33300 ft | 495 kts | 61° |
| 2026-05-04 22:57 | 36.74818 | -84.33975 | 33638 ft | 494 kts | 61° |
| 2026-05-04 22:57 | 36.76314 | -84.30177 | 33920 ft | 493 kts | 61° |
| 2026-05-04 22:58 | 36.77832 | -84.26321 | 34132 ft | 494 kts | 61° |
| 2026-05-04 22:58 | 36.79351 | -84.22459 | 34295 ft | 495 kts | 61° |
| 2026-05-04 22:58 | 36.80851 | -84.18640 | 34510 ft | 495 kts | 61° |
| 2026-05-04 22:58 | 36.82369 | -84.14768 | 34772 ft | 494 kts | 61° |
| 2026-05-04 22:59 | 36.83877 | -84.10918 | 35006 ft | 493 kts | 61° |
| 2026-05-04 22:59 | 36.85388 | -84.07056 | 35251 ft | 493 kts | 61° |
| 2026-05-04 22:59 | 36.86893 | -84.03203 | 35551 ft | 491 kts | 61° |
| 2026-05-04 22:59 | 36.88388 | -83.99371 | 35764 ft | 490 kts | 61° |
| 2026-05-04 23:00 | 36.89866 | -83.95579 | 35913 ft | 491 kts | 61° |
| 2026-05-04 23:00 | 36.91363 | -83.91734 | 36106 ft | 491 kts | 61° |
| 2026-05-04 23:00 | 36.92855 | -83.87897 | 36359 ft | 489 kts | 61° |
| 2026-05-04 23:00 | 36.94341 | -83.84071 | 36603 ft | 488 kts | 61° |
| 2026-05-04 23:01 | 36.95826 | -83.80243 | 36776 ft | 489 kts | 61° |
| 2026-05-04 23:01 | 36.97295 | -83.76451 | 36919 ft | 489 kts | 61° |
| 2026-05-04 23:01 | 37.00275 | -83.68748 | 36915 ft | 491 kts | 61° |
| 2026-05-04 23:02 | 37.03244 | -83.61050 | 36910 ft | 488 kts | 61° |
| 2026-05-04 23:02 | 37.06170 | -83.53444 | 36935 ft | 486 kts | 61° |
| 2026-05-04 23:03 | 37.09101 | -83.45806 | 36921 ft | 485 kts | 61° |
| 2026-05-04 23:03 | 37.12001 | -83.38234 | 36912 ft | 484 kts | 61° |
| 2026-05-04 23:04 | 37.14909 | -83.30624 | 36915 ft | 483 kts | 61° |
| 2026-05-04 23:04 | 37.17808 | -83.23007 | 36928 ft | 483 kts | 61° |
| 2026-05-04 23:05 | 37.20689 | -83.15432 | 36925 ft | 485 kts | 61° |
| 2026-05-04 23:05 | 37.23600 | -83.07764 | 36925 ft | 486 kts | 61° |
| 2026-05-04 23:06 | 37.31875 | -82.85559 | 37189 ft | 488 kts | 63° |
| 2026-05-04 23:06 | 37.35763 | -82.73522 | 37125 ft | 497 kts | 77° |
| 2026-05-04 23:06 | 37.37169 | -82.61898 | 37024 ft | 495 kts | 76° |
| 2026-05-04 23:06 | 37.41380 | -82.45564 | 36856 ft | 485 kts | 65° |
| 2026-05-04 23:07 | 37.50410 | -82.13998 | 36895 ft | 474 kts | 68° |
| 2026-05-04 23:07 | 37.59099 | -81.82543 | 36968 ft | 483 kts | 68° |
| 2026-05-04 23:08 | 37.67465 | -81.51787 | 37028 ft | 495 kts | 69° |
| 2026-05-04 23:08 | 37.71779 | -81.35623 | 36986 ft | 476 kts | 69° |
| 2026-05-04 23:09 | 37.77397 | -81.14603 | 37079 ft | 485 kts | 70° |
| 2026-05-04 23:09 | 37.79063 | -80.98131 | 36971 ft | 499 kts | 84° |
| 2026-05-04 23:10 | 37.79619 | -80.88392 | 36962 ft | 492 kts | 84° |
| 2026-05-04 23:10 | 37.80157 | -80.79830 | 36946 ft | 486 kts | 84° |
| 2026-05-04 23:11 | 37.80712 | -80.71331 | 36945 ft | 483 kts | 84° |
| 2026-05-04 23:11 | 37.81258 | -80.62890 | 36947 ft | 481 kts | 84° |
| 2026-05-04 23:12 | 37.81792 | -80.54500 | 36990 ft | 481 kts | 84° |
| 2026-05-04 23:12 | 37.82324 | -80.46033 | 36987 ft | 482 kts | 84° |
| 2026-05-04 23:13 | 37.82853 | -80.37612 | 36982 ft | 484 kts | 84° |
| 2026-05-04 23:13 | 37.83386 | -80.29113 | 36980 ft | 485 kts | 84° |
| 2026-05-04 23:14 | 37.83913 | -80.20597 | 36980 ft | 486 kts | 84° |
| 2026-05-04 23:14 | 37.84436 | -80.12032 | 36961 ft | 487 kts | 84° |
| 2026-05-04 23:15 | 37.84949 | -80.03529 | 36997 ft | 488 kts | 84° |
| 2026-05-04 23:15 | 37.85460 | -79.94961 | 37017 ft | 488 kts | 84° |
| 2026-05-04 23:16 | 37.85965 | -79.86385 | 37010 ft | 488 kts | 84° |
| 2026-05-04 23:16 | 37.86461 | -79.77867 | 37020 ft | 487 kts | 84° |
| 2026-05-04 23:17 | 37.86902 | -79.69311 | 37006 ft | 487 kts | 86° |
| 2026-05-04 23:17 | 37.87161 | -79.60726 | 36928 ft | 487 kts | 86° |
| 2026-05-04 23:18 | 37.87404 | -79.52214 | 36929 ft | 485 kts | 86° |
| 2026-05-04 23:18 | 37.87671 | -79.43650 | 36921 ft | 484 kts | 86° |
| 2026-05-04 23:19 | 37.87935 | -79.35181 | 36931 ft | 484 kts | 86° |
| 2026-05-04 23:19 | 37.88580 | -79.26713 | 36940 ft | 482 kts | 80° |
| 2026-05-04 23:20 | 37.89642 | -79.18328 | 36944 ft | 482 kts | 79° |
| 2026-05-04 23:20 | 37.90698 | -79.09992 | 36939 ft | 482 kts | 79° |
| 2026-05-04 23:21 | 37.91704 | -79.01570 | 36945 ft | 482 kts | 80° |
| 2026-05-04 23:21 | 37.92516 | -78.94567 | 36944 ft | 482 kts | 80° |
| 2026-05-04 23:22 | 37.93477 | -78.86188 | 36933 ft | 482 kts | 80° |
| 2026-05-04 23:22 | 37.94440 | -78.77768 | 36932 ft | 482 kts | 80° |
| 2026-05-04 23:23 | 37.95394 | -78.69384 | 36925 ft | 483 kts | 80° |
| 2026-05-04 23:23 | 37.96348 | -78.60943 | 36921 ft | 483 kts | 80° |
| 2026-05-04 23:24 | 37.97292 | -78.52546 | 36930 ft | 483 kts | 80° |
| 2026-05-04 23:24 | 37.98234 | -78.44098 | 36931 ft | 483 kts | 81° |
| 2026-05-04 23:25 | 37.99173 | -78.35631 | 36936 ft | 484 kts | 81° |
| 2026-05-04 23:25 | 38.00099 | -78.27220 | 36924 ft | 484 kts | 81° |
| 2026-05-04 23:26 | 38.01027 | -78.18743 | 36925 ft | 484 kts | 80° |
| 2026-05-04 23:26 | 38.01782 | -78.14648 | 36895 ft | 480 kts | 64° |
| 2026-05-04 23:26 | 38.03363 | -78.10960 | 36975 ft | 474 kts | 55° |
| 2026-05-04 23:27 | 38.06949 | -78.03915 | 36943 ft | 475 kts | 54° |
| 2026-05-04 23:27 | 38.10530 | -77.96897 | 36950 ft | 475 kts | 54° |
| 2026-05-04 23:28 | 38.14084 | -77.89796 | 36937 ft | 476 kts | 55° |
| 2026-05-04 23:28 | 38.17595 | -77.82701 | 36929 ft | 476 kts | 55° |
| 2026-05-04 23:29 | 38.21123 | -77.75545 | 36916 ft | 476 kts | 55° |
| 2026-05-04 23:29 | 38.24640 | -77.68396 | 36943 ft | 476 kts | 55° |
| 2026-05-04 23:30 | 38.28152 | -77.61248 | 36926 ft | 476 kts | 55° |
| 2026-05-04 23:30 | 38.31655 | -77.54103 | 36910 ft | 475 kts | 55° |
| 2026-05-04 23:31 | 38.35132 | -77.46995 | 36912 ft | 474 kts | 55° |
| 2026-05-04 23:31 | 38.38616 | -77.39857 | 36917 ft | 473 kts | 55° |
| 2026-05-04 23:32 | 38.42070 | -77.32765 | 36926 ft | 472 kts | 55° |
| 2026-05-04 23:32 | 38.45506 | -77.25695 | 36931 ft | 471 kts | 55° |
| 2026-05-04 23:33 | 38.48957 | -77.18577 | 36922 ft | 470 kts | 56° |
| 2026-05-04 23:33 | 38.52394 | -77.11474 | 36925 ft | 469 kts | 56° |
| 2026-05-04 23:34 | 38.55807 | -77.04403 | 36922 ft | 469 kts | 56° |
| 2026-05-04 23:34 | 38.59230 | -76.97297 | 36921 ft | 469 kts | 56° |
| 2026-05-04 23:35 | 38.62652 | -76.90178 | 36942 ft | 469 kts | 56° |
| 2026-05-04 23:35 | 38.66049 | -76.83095 | 36921 ft | 469 kts | 56° |
| 2026-05-04 23:36 | 38.69469 | -76.75945 | 36911 ft | 470 kts | 56° |
| 2026-05-04 23:36 | 38.72858 | -76.68849 | 36910 ft | 470 kts | 56° |
| 2026-05-04 23:37 | 38.76893 | -76.62415 | 36931 ft | 459 kts | 33° |
| 2026-05-04 23:37 | 38.82060 | -76.57555 | 36940 ft | 460 kts | 33° |
| 2026-05-04 23:38 | 38.87187 | -76.52619 | 36913 ft | 462 kts | 34° |
| 2026-05-04 23:38 | 38.89734 | -76.50132 | 36413 ft | 469 kts | 34° |
| 2026-05-04 23:38 | 38.92324 | -76.47587 | 35873 ft | 467 kts | 34° |
| 2026-05-04 23:39 | 38.94907 | -76.45044 | 35238 ft | 466 kts | 34° |
| 2026-05-04 23:39 | 38.97473 | -76.42517 | 34588 ft | 464 kts | 34° |
| 2026-05-04 23:39 | 39.00036 | -76.39995 | 33929 ft | 462 kts | 34° |
| 2026-05-04 23:39 | 39.02571 | -76.37500 | 33198 ft | 464 kts | 35° |
| 2026-05-04 23:40 | 39.05076 | -76.34841 | 32470 ft | 466 kts | 38° |
| 2026-05-04 23:40 | 39.07489 | -76.32045 | 31736 ft | 468 kts | 40° |
| 2026-05-04 23:40 | 39.09883 | -76.29179 | 30986 ft | 469 kts | 40° |
| 2026-05-04 23:40 | 39.12285 | -76.26299 | 30250 ft | 470 kts | 40° |
| 2026-05-04 23:41 | 39.14651 | -76.23487 | 29702 ft | 465 kts | 40° |
| 2026-05-04 23:41 | 39.17034 | -76.20679 | 29104 ft | 460 kts | 40° |
| 2026-05-04 23:41 | 39.19392 | -76.17918 | 28551 ft | 455 kts | 40° |
| 2026-05-04 23:41 | 39.21729 | -76.15187 | 28011 ft | 450 kts | 40° |
| 2026-05-04 23:42 | 39.24019 | -76.12508 | 27450 ft | 446 kts | 39° |
| 2026-05-04 23:42 | 39.26306 | -76.09827 | 27014 ft | 442 kts | 39° |
| 2026-05-04 23:42 | 39.28593 | -76.07144 | 26951 ft | 440 kts | 39° |
| 2026-05-04 23:42 | 39.30874 | -76.04466 | 26227 ft | 442 kts | 39° |
| 2026-05-04 23:43 | 39.33108 | -76.01838 | 25792 ft | 438 kts | 39° |
| 2026-05-04 23:43 | 39.35352 | -75.99195 | 25431 ft | 433 kts | 39° |
| 2026-05-04 23:43 | 39.37579 | -75.96571 | 25042 ft | 432 kts | 39° |
| 2026-05-04 23:43 | 39.39800 | -75.93953 | 24685 ft | 432 kts | 39° |
| 2026-05-04 23:44 | 39.42020 | -75.91332 | 24318 ft | 431 kts | 39° |
| 2026-05-04 23:44 | 39.44209 | -75.88747 | 23947 ft | 430 kts | 39° |
| 2026-05-04 23:44 | 39.46424 | -75.86128 | 23575 ft | 429 kts | 39° |
| 2026-05-04 23:44 | 39.48627 | -75.83521 | 23146 ft | 428 kts | 39° |
| 2026-05-04 23:45 | 39.50801 | -75.80946 | 22759 ft | 425 kts | 39° |
| 2026-05-04 23:45 | 39.52983 | -75.78357 | 22360 ft | 423 kts | 39° |
| 2026-05-04 23:45 | 39.55144 | -75.75792 | 22013 ft | 419 kts | 39° |
| 2026-05-04 23:45 | 39.57294 | -75.73239 | 21650 ft | 417 kts | 39° |
| 2026-05-04 23:46 | 39.59426 | -75.70703 | 21298 ft | 415 kts | 39° |
| 2026-05-04 23:46 | 39.61552 | -75.68174 | 20944 ft | 413 kts | 39° |
| 2026-05-04 23:46 | 39.63669 | -75.65654 | 20585 ft | 412 kts | 39° |
| 2026-05-04 23:46 | 39.65752 | -75.63171 | 20239 ft | 410 kts | 39° |
| 2026-05-04 23:47 | 39.67855 | -75.60663 | 19894 ft | 409 kts | 39° |
| 2026-05-04 23:47 | 39.69952 | -75.58151 | 19498 ft | 410 kts | 39° |
| 2026-05-04 23:47 | 39.72018 | -75.55666 | 19069 ft | 408 kts | 39° |
| 2026-05-04 23:47 | 39.74091 | -75.53167 | 18667 ft | 405 kts | 39° |
| 2026-05-04 23:48 | 39.76155 | -75.50676 | 18274 ft | 404 kts | 39° |
| 2026-05-04 23:48 | 39.78211 | -75.48196 | 17804 ft | 402 kts | 39° |
| 2026-05-04 23:48 | 39.80260 | -75.45720 | 17371 ft | 400 kts | 39° |
| 2026-05-04 23:48 | 39.82302 | -75.43252 | 16944 ft | 398 kts | 39° |
| 2026-05-04 23:49 | 39.84304 | -75.40831 | 16588 ft | 395 kts | 39° |
| 2026-05-04 23:49 | 39.86312 | -75.38400 | 16314 ft | 393 kts | 39° |
| 2026-05-04 23:49 | 39.88324 | -75.35964 | 15889 ft | 394 kts | 39° |
| 2026-05-04 23:49 | 39.90325 | -75.33538 | 15485 ft | 391 kts | 39° |
| 2026-05-04 23:50 | 39.92289 | -75.31155 | 15094 ft | 388 kts | 39° |
| 2026-05-04 23:50 | 39.94261 | -75.28760 | 14709 ft | 386 kts | 39° |
| 2026-05-04 23:50 | 39.96221 | -75.26378 | 14333 ft | 384 kts | 39° |
| 2026-05-04 23:50 | 39.98173 | -75.24004 | 13955 ft | 382 kts | 39° |
| 2026-05-04 23:51 | 40.00119 | -75.21636 | 13549 ft | 381 kts | 39° |
| 2026-05-04 23:51 | 40.02028 | -75.19310 | 13131 ft | 379 kts | 39° |
| 2026-05-04 23:51 | 40.03956 | -75.16959 | 12724 ft | 377 kts | 39° |
| 2026-05-04 23:51 | 40.05873 | -75.14619 | 12341 ft | 375 kts | 39° |
| 2026-05-04 23:52 | 40.07777 | -75.12294 | 11959 ft | 373 kts | 39° |
| 2026-05-04 23:52 | 40.09669 | -75.09981 | 11588 ft | 369 kts | 39° |
| 2026-05-04 23:52 | 40.11511 | -75.07727 | 11226 ft | 364 kts | 39° |
| 2026-05-04 23:52 | 40.13327 | -75.05502 | 10864 ft | 350 kts | 39° |
| 2026-05-04 23:53 | 40.15072 | -75.03361 | 10549 ft | 337 kts | 39° |
| 2026-05-04 23:53 | 40.16752 | -75.01299 | 10252 ft | 325 kts | 39° |
| 2026-05-04 23:53 | 40.18373 | -74.99310 | 9952 ft | 313 kts | 39° |
| 2026-05-04 23:53 | 40.19908 | -74.97425 | 9940 ft | 293 kts | 39° |
| 2026-05-04 23:54 | 40.21390 | -74.95610 | 9443 ft | 299 kts | 39° |
| 2026-05-04 23:54 | 40.22904 | -74.93752 | 9112 ft | 298 kts | 39° |
| 2026-05-04 23:54 | 40.24419 | -74.91890 | 8826 ft | 297 kts | 39° |
| 2026-05-04 23:54 | 40.25907 | -74.90021 | 8528 ft | 296 kts | 42° |
| 2026-05-04 23:55 | 40.27316 | -74.88065 | 8265 ft | 294 kts | 44° |
| 2026-05-04 23:55 | 40.28698 | -74.86098 | 8056 ft | 290 kts | 44° |
| 2026-05-04 23:55 | 40.31387 | -74.82283 | 7828 ft | 285 kts | 44° |
| 2026-05-04 23:56 | 40.32738 | -74.80382 | 7723 ft | 284 kts | 43° |
| 2026-05-04 23:56 | 40.34085 | -74.78488 | 7647 ft | 283 kts | 44° |
| 2026-05-04 23:56 | 40.35424 | -74.76605 | 7548 ft | 282 kts | 44° |
| 2026-05-04 23:56 | 40.36749 | -74.74740 | 7469 ft | 281 kts | 44° |
| 2026-05-04 23:57 | 40.38086 | -74.72858 | 7377 ft | 281 kts | 44° |
| 2026-05-04 23:57 | 40.39417 | -74.70982 | 7283 ft | 280 kts | 44° |
| 2026-05-04 23:57 | 40.40744 | -74.69112 | 7187 ft | 279 kts | 44° |
| 2026-05-04 23:57 | 40.42143 | -74.67336 | 7074 ft | 278 kts | 29° |
| 2026-05-04 23:58 | 40.43909 | -74.66458 | 7003 ft | 271 kts | 7° |
| 2026-05-04 23:58 | 40.45771 | -74.65960 | 6911 ft | 274 kts | 6° |
| 2026-05-04 23:58 | 40.47619 | -74.65486 | 6818 ft | 274 kts | 6° |
| 2026-05-04 23:58 | 40.49490 | -74.65004 | 6726 ft | 274 kts | 6° |
| 2026-05-04 23:59 | 40.51372 | -74.64513 | 6633 ft | 275 kts | 7° |
| 2026-05-04 23:59 | 40.53251 | -74.64017 | 6552 ft | 275 kts | 7° |
| 2026-05-04 23:59 | 40.55128 | -74.63518 | 6454 ft | 275 kts | 7° |
| 2026-05-04 23:59 | 40.56979 | -74.63024 | 6366 ft | 274 kts | 7° |
| 2026-05-05 00:00 | 40.58854 | -74.62522 | 6272 ft | 274 kts | 7° |
| 2026-05-05 00:00 | 40.59485 | -74.62353 | 6242 ft | 274 kts | 7° |
| 2026-05-05 00:00 | 40.62604 | -74.61517 | 6064 ft | 274 kts | 7° |
| 2026-05-05 00:00 | 40.64472 | -74.61016 | 6003 ft | 271 kts | 7° |
| 2026-05-05 00:01 | 40.66300 | -74.60525 | 5986 ft | 268 kts | 7° |
| 2026-05-05 00:01 | 40.68123 | -74.60034 | 5996 ft | 266 kts | 7° |
| 2026-05-05 00:01 | 40.69920 | -74.59551 | 5988 ft | 258 kts | 7° |
| 2026-05-05 00:01 | 40.71625 | -74.59090 | 5978 ft | 247 kts | 7° |
| 2026-05-05 00:02 | 40.73266 | -74.58645 | 6000 ft | 232 kts | 7° |
| 2026-05-05 00:02 | 40.74803 | -74.58231 | 5989 ft | 216 kts | 6° |
| 2026-05-05 00:02 | 40.76257 | -74.57841 | 6007 ft | 212 kts | 6° |
| 2026-05-05 00:02 | 40.77700 | -74.57455 | 5994 ft | 211 kts | 6° |
| 2026-05-05 00:03 | 40.79103 | -74.56885 | 5897 ft | 215 kts | 32° |
| 2026-05-05 00:03 | 40.80140 | -74.55523 | 5646 ft | 215 kts | 47° |
| 2026-05-05 00:03 | 40.81145 | -74.54013 | 5300 ft | 217 kts | 47° |
| 2026-05-05 00:03 | 40.82147 | -74.52513 | 5082 ft | 217 kts | 47° |
| 2026-05-05 00:04 | 40.83157 | -74.51005 | 5052 ft | 221 kts | 47° |
| 2026-05-05 00:04 | 40.84176 | -74.49479 | 5027 ft | 221 kts | 48° |
| 2026-05-05 00:04 | 40.85171 | -74.47992 | 5009 ft | 216 kts | 47° |
| 2026-05-05 00:04 | 40.86160 | -74.46506 | 5019 ft | 215 kts | 47° |
| 2026-05-05 00:05 | 40.87161 | -74.45010 | 5021 ft | 218 kts | 47° |
| 2026-05-05 00:05 | 40.88172 | -74.43506 | 5028 ft | 219 kts | 47° |
| 2026-05-05 00:05 | 40.89187 | -74.41998 | 5021 ft | 220 kts | 47° |
| 2026-05-05 00:05 | 40.90208 | -74.40485 | 5012 ft | 220 kts | 47° |
| 2026-05-05 00:06 | 40.91220 | -74.38992 | 5014 ft | 220 kts | 47° |
| 2026-05-05 00:06 | 40.92242 | -74.37478 | 5006 ft | 221 kts | 47° |
| 2026-05-05 00:06 | 40.93266 | -74.35963 | 5015 ft | 221 kts | 47° |
| 2026-05-05 00:06 | 40.94284 | -74.34450 | 5019 ft | 220 kts | 47° |
| 2026-05-05 00:07 | 40.95297 | -74.32934 | 5010 ft | 220 kts | 47° |
| 2026-05-05 00:07 | 40.96308 | -74.31420 | 5011 ft | 218 kts | 47° |
| 2026-05-05 00:07 | 40.97061 | -74.29733 | 4977 ft | 215 kts | 84° |
| 2026-05-05 00:07 | 40.96864 | -74.27873 | 5034 ft | 203 kts | 116° |
| 2026-05-05 00:08 | 40.96332 | -74.26100 | 5027 ft | 209 kts | 117° |
| 2026-05-05 00:08 | 40.95972 | -74.24917 | 5022 ft | 209 kts | 117° |
| 2026-05-05 00:08 | 40.95435 | -74.23158 | 5000 ft | 199 kts | 117° |
| 2026-05-05 00:08 | 40.94935 | -74.21501 | 4823 ft | 191 kts | 117° |
| 2026-05-05 00:09 | 40.94450 | -74.19872 | 4465 ft | 193 kts | 117° |
| 2026-05-05 00:09 | 40.93918 | -74.18112 | 3678 ft | 219 kts | 117° |
| 2026-05-05 00:09 | 40.93151 | -74.15572 | 3306 ft | 225 kts | 117° |
| 2026-05-05 00:09 | 40.92764 | -74.14271 | 3229 ft | 225 kts | 117° |
| 2026-05-05 00:10 | 40.92189 | -74.12328 | 3108 ft | 227 kts | 117° |
| 2026-05-05 00:10 | 40.91618 | -74.10398 | 3028 ft | 228 kts | 117° |
| 2026-05-05 00:10 | 40.91009 | -74.08458 | 3002 ft | 225 kts | 126° |
| 2026-05-05 00:10 | 40.89898 | -74.07179 | 3015 ft | 208 kts | 167° |
| 2026-05-05 00:11 | 40.88498 | -74.06695 | 3014 ft | 208 kts | 174° |
| 2026-05-05 00:11 | 40.87085 | -74.06414 | 2977 ft | 207 kts | 177° |
| 2026-05-05 00:11 | 40.85649 | -74.06159 | 2997 ft | 205 kts | 177° |
| 2026-05-05 00:11 | 40.84238 | -74.05933 | 2992 ft | 203 kts | 182° |
| 2026-05-05 00:12 | 40.82990 | -74.06491 | 3018 ft | 193 kts | 220° |
| 2026-05-05 00:12 | 40.82026 | -74.07751 | 3017 ft | 195 kts | 227° |
| 2026-05-05 00:12 | 40.81070 | -74.08941 | 2987 ft | 180 kts | 211° |
| 2026-05-05 00:12 | 40.79939 | -74.09428 | 2869 ft | 167 kts | 201° |
| 2026-05-05 00:13 | 40.78895 | -74.10095 | 2385 ft | 169 kts | 213° |
| 2026-05-05 00:13 | 40.77907 | -74.10955 | 1958 ft | 170 kts | 213° |
| 2026-05-05 00:13 | 40.76871 | -74.11698 | 1484 ft | 170 kts | 205° |
| 2026-05-05 00:13 | 40.75820 | -74.12300 | 1209 ft | 158 kts | 206° |
| 2026-05-05 00:14 | 40.74848 | -74.12931 | 880 ft | 150 kts | 208° |
| 2026-05-05 00:14 | 40.73981 | -74.13480 | 918 ft | 131 kts | 210° |
| 2026-05-05 00:14 | 40.73168 | -74.14000 | 713 ft | 127 kts | 208° |
| 2026-05-05 00:14 | 40.72420 | -74.14481 | 606 ft | 119 kts | 206° |
| 2026-05-05 00:15 | 40.71633 | -74.14964 | 431 ft | 129 kts | 208° |
| 2026-05-05 00:15 | 40.70842 | -74.15469 | 263 ft | 119 kts | 208° |
| 2026-05-05 00:15 | 40.70151 | -74.15911 | 101 ft | 103 kts | 206° |
| 2026-05-05 00:15 | 40.69479 | -74.16337 | 38 ft | 120 kts | 206° |
| 2026-05-05 00:16 | 40.68730 | -74.16812 | 18 ft | 115 kts | 205° |
| 2026-05-05 00:16 | 40.68265 | -74.17103 | 19 ft | 38 kts | 206° |
| 2026-05-05 00:16 | 40.68068 | -74.17231 | 18 ft | 24 kts | 211° |
| 2026-05-05 00:16 | 40.67970 | -74.17374 | 18 ft | 15 kts | 248° |
| 2026-05-05 00:17 | 40.67955 | -74.17508 | 16 ft | 15 kts | 274° |
| 2026-05-05 00:17 | 40.67988 | -74.17643 | 16 ft | 16 kts | 296° |
| 2026-05-05 00:17 | 40.68030 | -74.17761 | 19 ft | 12 kts | 293° |
| 2026-05-05 00:17 | 40.68081 | -74.17854 | 19 ft | 13 kts | 338° |
| 2026-05-05 00:18 | 40.68169 | -74.17825 | 19 ft | 14 kts | 25° |
| 2026-05-05 00:18 | 40.68258 | -74.17767 | 20 ft | 15 kts | 26° |
| 2026-05-05 00:18 | 40.68358 | -74.17704 | 21 ft | 16 kts | 25° |
| 2026-05-05 00:18 | 40.68457 | -74.17641 | 28 ft | 16 kts | 25° |
| 2026-05-05 00:19 | 40.68546 | -74.17584 | 27 ft | 13 kts | 25° |
| 2026-05-05 00:19 | 40.68635 | -74.17528 | 26 ft | 15 kts | 26° |
| 2026-05-05 00:19 | 40.68732 | -74.17466 | 24 ft | 15 kts | 26° |
| 2026-05-05 00:19 | 40.68810 | -74.17441 | 23 ft | 12 kts | 333° |
| 2026-05-05 00:20 | 40.68857 | -74.17532 | 21 ft | 13 kts | 295° |
| 2026-05-05 00:20 | 40.68900 | -74.17553 | 21 ft | 8 kts | 25° |
| 2026-05-05 00:20 | 40.68940 | -74.17528 | 20 ft | 1 kts | 24° |
| 2026-05-05 00:20 | 40.68943 | -74.17526 | 20 ft | 0 kts | 24° |